createdAt,value
2023-02-01T00:00:13.433Z,20.60
2023-02-01T00:05:16.579Z,19.90
2023-02-01T00:10:19.549Z,15.57
2023-02-01T00:15:24.316Z,13.38
2023-02-01T00:20:27.196Z,11.15
2023-02-01T00:25:30.304Z,10.00
2023-02-01T00:30:33.295Z,10.48
2023-02-01T00:35:37.442Z,9.13
2023-02-01T00:40:40.287Z,8.70
2023-02-01T00:45:43.306Z,9.70
2023-02-01T00:50:46.590Z,8.65
2023-02-01T00:55:51.315Z,9.20
2023-02-01T01:01:09.917Z,8.85
2023-02-01T01:11:34.766Z,8.40
2023-02-01T01:16:38.040Z,8.88
2023-02-01T01:21:41.277Z,8.65
2023-02-01T01:26:44.157Z,8.43
2023-02-01T01:31:47.124Z,9.15
2023-02-01T01:36:50.142Z,8.60
2023-02-01T01:41:53.065Z,8.90
2023-02-01T01:47:00.650Z,11.07
2023-02-01T01:52:05.024Z,12.25
2023-02-01T01:57:18.184Z,10.80
2023-02-01T02:02:21.114Z,9.27
2023-02-01T02:07:32.311Z,8.55
2023-02-01T02:12:35.273Z,10.23
2023-02-01T02:18:10.847Z,10.30
2023-02-01T02:23:38.819Z,11.10
2023-02-01T02:29:19.122Z,12.90
2023-02-01T02:34:27.493Z,16.15
2023-02-01T02:39:51.872Z,19.65
2023-02-01T02:45:24.774Z,18.80
2023-02-01T02:50:53.719Z,19.42
2023-02-01T02:56:17.466Z,16.15
2023-02-01T03:01:39.395Z,15.82
2023-02-01T03:06:42.756Z,15.15
2023-02-01T03:12:07.188Z,15.20
2023-02-01T03:17:20.521Z,14.05
2023-02-01T03:22:28.085Z,15.07
2023-02-01T03:27:44.336Z,15.65
2023-02-01T03:33:02.490Z,16.25
2023-02-01T03:38:24.178Z,16.38
2023-02-01T03:43:32.194Z,19.33
2023-02-01T03:48:37.255Z,19.58
2023-02-01T03:53:42.927Z,20.67
2023-02-01T03:59:00.350Z,16.60
2023-02-01T04:04:10.724Z,14.18
2023-02-01T04:09:15.922Z,13.95
2023-02-01T04:14:19.166Z,12.20
2023-02-01T04:19:21.986Z,14.07
2023-02-01T04:24:25.117Z,13.77
2023-02-01T04:29:28.098Z,12.07
2023-02-01T04:34:31.336Z,11.57
2023-02-01T04:39:34.658Z,11.40
2023-02-01T04:44:40.817Z,10.32
2023-02-01T04:49:43.917Z,9.70
2023-02-01T04:54:46.739Z,9.82
2023-02-01T04:59:49.790Z,10.23
2023-02-01T05:04:52.804Z,9.77
2023-02-01T05:09:55.864Z,10.32
2023-02-01T05:14:58.933Z,8.55
2023-02-01T05:20:01.893Z,10.68
2023-02-01T05:25:08.293Z,9.52
2023-02-01T05:30:12.430Z,9.43
2023-02-01T05:35:15.482Z,9.70
2023-02-01T05:40:18.919Z,9.30
2023-02-01T05:45:22.211Z,8.77
2023-02-01T05:50:25.425Z,9.18
2023-02-01T05:55:34.143Z,8.23
2023-02-01T06:00:37.076Z,9.48
2023-02-01T06:05:40.184Z,8.40
2023-02-01T06:10:43.370Z,9.65
2023-02-01T06:15:47.000Z,9.52
2023-02-01T06:21:01.394Z,10.27
2023-02-01T06:26:08.872Z,10.73
2023-02-01T06:31:12.152Z,10.35
2023-02-01T06:36:16.691Z,10.40
2023-02-01T06:41:21.831Z,9.98
2023-02-01T06:51:29.643Z,9.75
2023-02-01T06:56:32.819Z,9.90
2023-02-01T07:01:36.087Z,9.63
2023-02-01T07:06:40.133Z,9.90
2023-02-01T07:11:44.618Z,9.57
2023-02-01T07:16:47.980Z,9.65
2023-02-01T07:21:53.074Z,9.25
2023-02-01T07:26:56.458Z,8.90
2023-02-01T07:31:59.737Z,9.73
2023-02-01T07:37:02.524Z,9.48
2023-02-01T07:42:05.486Z,9.43
2023-02-01T07:47:08.449Z,9.80
2023-02-01T07:52:12.558Z,10.20
2023-02-01T07:57:21.266Z,10.70
2023-02-01T08:02:24.569Z,10.48
2023-02-01T08:07:27.855Z,10.70
2023-02-01T08:12:31.012Z,10.57
2023-02-01T08:17:33.947Z,10.77
2023-02-01T08:22:36.899Z,11.18
2023-02-01T08:27:40.129Z,11.55
2023-02-01T08:32:43.178Z,11.68
2023-02-01T08:37:46.167Z,11.25
2023-02-01T08:42:52.469Z,12.25
2023-02-01T08:48:00.768Z,11.95
2023-02-01T08:53:03.688Z,11.73
2023-02-01T08:58:06.592Z,11.57
2023-02-01T09:03:12.435Z,11.35
2023-02-01T09:08:16.335Z,12.90
2023-02-01T09:13:19.657Z,12.45
2023-02-01T09:18:22.547Z,13.23
2023-02-01T09:23:26.137Z,12.85
2023-02-01T09:28:29.222Z,12.95
2023-02-01T09:33:32.692Z,13.40
2023-02-01T09:38:38.850Z,12.75
2023-02-01T09:44:00.715Z,12.15
2023-02-01T09:49:11.151Z,13.23
2023-02-01T09:54:24.226Z,13.40
2023-02-01T09:59:37.444Z,12.68
2023-02-01T10:04:40.660Z,13.55
2023-02-01T10:10:27.710Z,12.48
2023-02-01T10:16:08.740Z,13.45
2023-02-01T10:21:24.519Z,14.88
2023-02-01T10:26:34.067Z,14.95
2023-02-01T10:31:39.798Z,15.55
2023-02-01T10:37:01.059Z,14.07
2023-02-01T10:42:04.538Z,14.32
2023-02-01T10:47:09.878Z,14.43
2023-02-01T10:52:22.925Z,16.20
2023-02-01T10:57:30.924Z,16.00
2023-02-01T11:02:37.397Z,15.88
2023-02-01T11:07:47.600Z,17.40
2023-02-01T11:12:55.553Z,17.92
2023-02-01T11:18:16.983Z,17.73
2023-02-01T11:23:22.933Z,16.58
2023-02-01T11:28:33.314Z,15.88
2023-02-01T11:33:39.503Z,15.60
2023-02-01T11:38:53.870Z,16.13
2023-02-01T11:44:02.077Z,15.60
2023-02-01T11:49:26.702Z,15.77
2023-02-01T11:54:55.814Z,15.32
2023-02-01T12:00:05.188Z,16.85
2023-02-01T12:05:37.248Z,15.82
2023-02-01T12:11:09.818Z,16.92
2023-02-01T12:16:32.963Z,16.05
2023-02-01T12:27:08.802Z,15.30
2023-02-01T12:32:41.173Z,16.20
2023-02-01T12:38:04.863Z,16.13
2023-02-01T12:43:22.852Z,16.33
2023-02-01T12:48:33.803Z,17.35
2023-02-01T12:58:55.914Z,16.00
2023-02-01T13:04:18.617Z,16.83
2023-02-01T13:09:21.434Z,14.68
2023-02-01T13:14:33.164Z,15.88
2023-02-01T13:20:24.409Z,16.23
2023-02-01T13:26:02.587Z,15.85
2023-02-01T13:31:20.369Z,15.07
2023-02-01T13:36:37.103Z,16.02
2023-02-01T13:41:53.301Z,16.30
2023-02-01T13:47:00.185Z,17.13
2023-02-01T13:52:03.687Z,16.67
2023-02-01T13:57:28.425Z,17.85
2023-02-01T14:02:41.535Z,16.95
2023-02-01T14:08:06.080Z,16.95
2023-02-01T14:13:31.006Z,17.95
2023-02-01T14:18:38.454Z,16.92
2023-02-01T14:23:44.435Z,20.13
2023-02-01T14:29:12.776Z,17.42
2023-02-01T14:34:48.093Z,16.23
2023-02-01T14:40:01.717Z,15.20
2023-02-01T14:45:25.706Z,14.98
2023-02-01T14:50:49.073Z,13.57
2023-02-01T14:56:14.125Z,14.05
2023-02-01T15:01:35.232Z,13.80
2023-02-01T15:06:42.427Z,13.65
2023-02-01T15:12:01.219Z,12.82
2023-02-01T15:17:19.518Z,13.98
2023-02-01T15:22:22.699Z,12.52
2023-02-01T15:27:27.297Z,11.80
2023-02-01T15:32:37.823Z,11.90
2023-02-01T15:37:40.778Z,10.65
2023-02-01T15:42:55.663Z,10.90
2023-02-01T15:48:00.412Z,11.48
2023-02-01T15:53:03.790Z,10.35
2023-02-01T15:58:08.834Z,10.13
2023-02-01T16:03:45.860Z,10.30
2023-02-01T16:09:01.312Z,10.95
2023-02-01T16:14:04.663Z,11.35
2023-02-01T16:19:07.878Z,10.45
2023-02-01T16:24:10.986Z,11.35
2023-02-01T16:29:13.944Z,10.55
2023-02-01T16:34:21.261Z,10.80
2023-02-01T16:39:25.372Z,11.02
2023-02-01T16:44:28.469Z,10.88
2023-02-01T16:49:31.395Z,11.10
2023-02-01T16:54:34.330Z,10.38
2023-02-01T16:59:37.301Z,10.45
2023-02-01T17:04:40.902Z,10.70
2023-02-01T17:09:44.124Z,10.80
2023-02-01T17:14:47.200Z,11.15
2023-02-01T17:19:54.491Z,10.82
2023-02-01T17:24:57.511Z,10.07
2023-02-01T17:30:01.182Z,11.20
2023-02-01T17:35:07.464Z,11.00
2023-02-01T17:45:38.829Z,9.93
2023-02-01T17:50:42.281Z,11.00
2023-02-01T17:55:46.692Z,10.73
2023-02-01T18:00:50.611Z,11.13
2023-02-01T18:05:56.002Z,11.73
2023-02-01T18:11:01.445Z,11.38
2023-02-01T18:16:04.953Z,10.45
2023-02-01T18:21:08.125Z,11.50
2023-02-01T18:26:16.528Z,11.88
2023-02-01T18:31:30.215Z,11.40
2023-02-01T18:36:33.311Z,10.95
2023-02-01T18:41:36.701Z,11.63
2023-02-01T18:46:39.806Z,11.02
2023-02-01T18:51:43.813Z,11.00
2023-02-01T18:56:46.752Z,10.60
2023-02-01T19:01:49.967Z,11.20
2023-02-01T19:06:52.923Z,10.73
2023-02-01T19:11:55.871Z,11.50
2023-02-01T19:16:58.963Z,12.43
2023-02-01T19:22:01.653Z,11.90
2023-02-01T19:27:04.721Z,11.70
2023-02-01T19:32:07.864Z,11.25
2023-02-01T19:37:11.065Z,12.18
2023-02-01T19:42:14.565Z,12.52
2023-02-01T19:47:17.510Z,11.63
2023-02-01T19:52:20.581Z,11.00
2023-02-01T19:57:23.783Z,12.27
2023-02-01T20:02:28.898Z,12.50
2023-02-01T20:07:31.907Z,11.27
2023-02-01T20:12:35.138Z,11.48
2023-02-01T20:17:38.248Z,10.38
2023-02-01T20:22:41.217Z,11.20
2023-02-01T20:27:44.956Z,10.25
2023-02-01T20:32:52.345Z,11.02
2023-02-01T20:37:57.401Z,10.50
2023-02-01T20:43:00.318Z,9.90
2023-02-01T20:48:03.387Z,9.52
2023-02-01T20:53:06.822Z,9.18
2023-02-01T20:58:09.828Z,9.05
2023-02-01T21:03:13.464Z,9.45
2023-02-01T21:08:17.055Z,9.25
2023-02-01T21:13:20.470Z,9.93
2023-02-01T21:18:24.269Z,9.48
2023-02-01T21:23:27.176Z,8.70
2023-02-01T21:28:30.293Z,9.20
2023-02-01T21:33:33.695Z,9.20
2023-02-01T21:38:36.752Z,9.90
2023-02-01T21:43:40.023Z,9.93
2023-02-01T21:49:05.110Z,10.40
2023-02-01T21:54:11.621Z,10.23
2023-02-01T21:59:14.538Z,10.13
2023-02-01T22:04:18.163Z,9.80
2023-02-01T22:09:26.331Z,8.75
2023-02-01T22:14:29.268Z,9.93
2023-02-01T22:19:32.268Z,8.68
2023-02-01T22:24:36.332Z,9.13
2023-02-01T22:29:39.289Z,9.15
2023-02-01T22:34:42.913Z,9.35
2023-02-01T22:39:46.470Z,9.43
2023-02-01T22:44:49.507Z,9.10
2023-02-01T22:49:52.553Z,9.68
2023-02-01T22:54:55.514Z,8.73
2023-02-01T22:59:58.547Z,8.50
2023-02-01T23:05:01.512Z,9.32
2023-02-01T23:10:06.382Z,9.35
2023-02-01T23:15:09.978Z,8.73
2023-02-01T23:20:16.165Z,7.85
2023-02-01T23:25:19.593Z,8.43
2023-02-01T23:30:22.648Z,7.90
2023-02-01T23:35:25.921Z,8.52
2023-02-01T23:40:29.147Z,8.10
2023-02-01T23:45:32.212Z,8.48
2023-02-01T23:50:35.134Z,8.48
2023-02-01T23:55:38.141Z,8.57
